Daybreak2
, South Jordan
Last Weather Update:02/23/2012 6:00:00 PM
Date
ETo
ETc
Rain
Irrigation
Req
Temp
Max
Temp
Min
Temp
Avg
Avg RH
Avg Wind
Avg Solar
inches
inches
incehs
inches
F
F
F
%
%
watts/m2
01/01/2012 0.05" 0.00" 0.00" 0.00" 44.1° 22.9° 31.0° 45.6% 4.9 MPH 109.0w/m2
01/02/2012 0.05" 0.00" 0.00" 0.00" 48.3° 25.1° 33.6° 48.7% 4.6 MPH 105.1w/m2
01/03/2012 0.06" 0.00" 0.00" 0.00" 49.6° 28.1° 38.5° 43.9% 5.0 MPH 105.3w/m2
01/04/2012 0.06" 0.00" 0.00" 0.00" 51.1° 29.1° 38.4° 42.8% 4.9 MPH 101.6w/m2
01/05/2012 0.06" 0.00" 0.00" 0.00" 52.3° 30.1° 39.9° 42.3% 5.4 MPH 107.6w/m2
01/06/2012 0.05" 0.00" 0.00" 0.00" 45.4° 26.9° 35.0° 61.0% 4.1 MPH 105.6w/m2
01/07/2012 0.02" 0.00" 0.04" -0.04" 34.0° 22.3° 29.6° 86.6% 6.6 MPH 76.9w/m2
01/08/2012 0.03" 0.00" 0.01" -0.01" 35.0° 16.7° 25.0° 78.7% 4.5 MPH 94.0w/m2
01/09/2012 0.03" 0.00" 0.00" 0.00" 39.9° 19.9° 27.9° 75.4% 4.0 MPH 108.2w/m2
01/10/2012 0.04" 0.00" 0.00" 0.00" 40.4° 21.4° 30.2° 76.6% 4.9 MPH 104.9w/m2
01/11/2012 0.04" 0.00" 0.00" 0.00" 31.8° 19.2° 27.0° 66.1% 7.3 MPH 115.6w/m2
01/12/2012 0.04" 0.00" 0.00" 0.00" 34.3° 14.8° 23.1° 57.7% 4.8 MPH 117.6w/m2
01/13/2012 0.05" 0.00" 0.00" 0.00" 40.7° 18.4° 28.4° 46.6% 5.3 MPH 117.5w/m2
01/14/2012 0.10" 0.00" 0.00" 0.00" 49.6° 29.1° 38.6° 25.0% 10.3 MPH 116.1w/m2
01/15/2012 0.13" 0.00" 0.00" 0.00" 50.8° 40.6° 45.6° 13.7% 14.0 MPH 44.2w/m2
01/16/2012 0.03" 0.00" 0.00" 0.00" 43.8° 12.8° 23.1° 61.4% 8.8 MPH 72.2w/m2
01/17/2012 0.05" 0.00" 0.00" 0.00" 32.6° 12.3° 22.5° 45.5% 7.9 MPH 121.3w/m2
01/18/2012 0.06" 0.00" 0.16" -0.16" 42.5° 32.3° 36.0° 51.6% 10.7 MPH 46.8w/m2
01/19/2012 0.08" 0.00" 0.00" 0.00" 53.1° 37.5° 45.1° 49.9% 8.5 MPH 42.9w/m2
01/20/2012 0.08" 0.00" 0.00" 0.00" 51.9° 37.0° 45.4° 52.8% 6.5 MPH 87.3w/m2
01/21/2012 0.03" 0.00" 0.39" -0.39" 49.8° 31.4° 38.7° 77.0% 10.6 MPH 9.8w/m2
01/22/2012 0.06" 0.00" 0.11" -0.11" 37.1° 24.7° 31.6° 62.5% 5.9 MPH 128.1w/m2
01/23/2012 0.03" 0.00" 0.01" -0.01" 40.0° 29.5° 33.0° 75.4% 6.9 MPH 65.7w/m2
01/24/2012 0.04" 0.00" 0.05" -0.05" 37.4° 24.9° 30.9° 79.1% 3.2 MPH 117.5w/m2
01/25/2012 0.05" 0.00" 0.00" 0.00" 40.2° 28.9° 34.2° 67.0% 8.4 MPH 112.5w/m2
01/26/2012 0.05" 0.00" 0.10" -0.10" 43.3° 33.5° 38.7° 69.1% 8.2 MPH 49.3w/m2
01/27/2012 0.06" 0.00" 0.00" 0.00" 39.0° 23.1° 30.8° 61.6% 7.6 MPH 136.6w/m2
01/28/2012 0.05" 0.00" 0.00" 0.00" 39.8° 20.1° 28.0° 61.3% 5.8 MPH 134.7w/m2
01/29/2012 0.07" 0.00" 0.00" 0.00" 41.7° 23.7° 32.9° 44.1% 7.3 MPH 110.9w/m2
01/30/2012 0.05" 0.00" 0.00" 0.00" 46.7° 26.4° 34.8° 55.8% 5.8 MPH 73.5w/m2
01/31/2012 0.05" 0.00" 0.00" 0.00" 47.4° 26.8° 34.0° 64.5% 4.6 MPH 114.9w/m2
Totals: 1.65" 0.00" 0.87" -0.87" 53.1° 12.3° 33.3° 57.7% 6.7 MPH 95.3w/m2